createdAt,value
2018-10-16T00:00:18.368Z,15.30
2018-10-16T00:01:20.527Z,15.30
2018-10-16T00:02:22.720Z,15.30
2018-10-16T00:03:24.856Z,15.30
2018-10-16T00:04:27.023Z,15.30
2018-10-16T00:05:29.204Z,15.30
2018-10-16T00:06:31.352Z,15.30
2018-10-16T00:07:33.498Z,15.30
2018-10-16T00:08:35.750Z,15.30
2018-10-16T00:09:37.922Z,15.30
2018-10-16T00:10:44.013Z,15.20
2018-10-16T00:11:59.772Z,15.20
2018-10-16T00:13:01.937Z,15.20
2018-10-16T00:14:04.153Z,15.20
2018-10-16T00:15:07.769Z,15.10
2018-10-16T00:16:09.940Z,15.10
2018-10-16T00:17:12.081Z,15.10
2018-10-16T00:18:14.240Z,15.10
2018-10-16T00:19:16.380Z,15.10
2018-10-16T00:20:18.613Z,15.10
2018-10-16T00:21:20.761Z,15.10
2018-10-16T00:22:22.926Z,15.10
2018-10-16T00:23:25.089Z,15.10
2018-10-16T00:24:27.249Z,15.10
2018-10-16T00:25:29.442Z,15.10
2018-10-16T00:26:31.874Z,15.10
2018-10-16T00:27:34.052Z,15.00
2018-10-16T00:28:36.289Z,15.00
2018-10-16T00:29:38.425Z,15.00
2018-10-16T00:30:40.595Z,14.90
2018-10-16T00:31:42.988Z,14.90
2018-10-16T00:32:45.336Z,14.90
2018-10-16T00:33:47.398Z,14.90
2018-10-16T00:34:49.536Z,14.90
2018-10-16T00:35:51.710Z,14.90
2018-10-16T00:36:53.909Z,14.90
2018-10-16T00:37:56.069Z,14.90
2018-10-16T00:38:58.222Z,14.90
2018-10-16T00:40:00.372Z,14.90
2018-10-16T00:41:02.894Z,14.90
2018-10-16T00:42:05.063Z,14.80
2018-10-16T00:43:07.236Z,14.80
2018-10-16T00:44:11.546Z,14.80
2018-10-16T00:45:13.701Z,14.90
2018-10-16T00:46:15.865Z,14.80
2018-10-16T00:47:18.036Z,14.80
2018-10-16T00:48:20.166Z,14.80
2018-10-16T00:49:22.318Z,14.80
2018-10-16T00:50:24.512Z,14.70
2018-10-16T00:51:26.648Z,14.80
2018-10-16T00:52:28.795Z,14.70
2018-10-16T00:53:30.964Z,14.70
2018-10-16T00:54:33.134Z,14.70
2018-10-16T00:55:35.276Z,14.70
2018-10-16T00:56:37.645Z,14.70
2018-10-16T00:57:40.191Z,14.70
2018-10-16T00:58:42.337Z,14.70
2018-10-16T00:59:44.465Z,14.70
2018-10-16T01:00:46.801Z,14.70
2018-10-16T01:01:48.973Z,14.70
2018-10-16T01:02:51.113Z,14.70
2018-10-16T01:03:53.242Z,14.70
2018-10-16T01:04:55.401Z,14.70
2018-10-16T01:05:57.581Z,14.60
2018-10-16T01:06:59.760Z,14.60
2018-10-16T01:08:02.285Z,14.70
2018-10-16T01:09:08.273Z,14.60
2018-10-16T01:10:11.313Z,14.70
2018-10-16T01:11:13.471Z,14.70
2018-10-16T01:12:15.640Z,14.70
2018-10-16T01:13:17.795Z,14.70
2018-10-16T01:14:19.946Z,14.70
2018-10-16T01:15:22.108Z,14.70
2018-10-16T01:16:24.384Z,14.70
2018-10-16T01:17:26.561Z,14.70
2018-10-16T01:18:28.725Z,14.70
2018-10-16T01:19:30.913Z,14.70
2018-10-16T01:20:33.073Z,14.70
2018-10-16T01:21:35.225Z,14.70
2018-10-16T01:22:37.395Z,14.70
2018-10-16T01:23:39.638Z,14.80
2018-10-16T01:24:41.790Z,14.80
2018-10-16T01:25:43.949Z,14.80
2018-10-16T01:26:46.142Z,14.80
2018-10-16T01:27:48.440Z,14.80
2018-10-16T01:28:50.591Z,14.80
2018-10-16T01:29:52.786Z,14.80
2018-10-16T01:30:54.918Z,14.80
2018-10-16T01:31:57.044Z,14.80
2018-10-16T01:32:59.174Z,14.80
2018-10-16T01:34:01.341Z,14.80
2018-10-16T01:35:04.249Z,14.70
2018-10-16T01:36:06.865Z,14.70
2018-10-16T01:37:09.011Z,14.70
2018-10-16T01:38:11.141Z,14.70
2018-10-16T01:39:13.289Z,14.70
2018-10-16T01:40:15.450Z,14.60
2018-10-16T01:41:17.623Z,14.70
2018-10-16T01:42:19.756Z,14.60
2018-10-16T01:43:21.960Z,14.60
2018-10-16T01:44:24.070Z,14.70
2018-10-16T01:45:26.181Z,14.70
2018-10-16T01:46:28.549Z,14.70
2018-10-16T01:47:30.682Z,14.70
2018-10-16T01:48:32.839Z,14.70
2018-10-16T01:49:35.019Z,14.70
2018-10-16T01:50:37.153Z,14.70
2018-10-16T01:51:39.284Z,14.70
2018-10-16T01:52:41.405Z,14.70
2018-10-16T01:53:43.524Z,14.70
2018-10-16T01:54:45.664Z,14.70
2018-10-16T01:55:47.821Z,14.60
2018-10-16T01:56:49.968Z,14.60
2018-10-16T01:57:52.201Z,14.60
2018-10-16T01:58:54.338Z,14.60
2018-10-16T01:59:56.825Z,14.50
2018-10-16T02:00:58.982Z,14.50
2018-10-16T02:02:01.150Z,14.50
2018-10-16T02:03:03.271Z,14.50
2018-10-16T02:04:05.478Z,14.50
2018-10-16T02:05:07.882Z,14.50
2018-10-16T02:06:10.022Z,14.50
2018-10-16T02:07:12.164Z,14.50
2018-10-16T02:08:14.276Z,14.60
2018-10-16T02:09:16.396Z,14.60
2018-10-16T02:10:18.538Z,14.50
2018-10-16T02:11:20.695Z,14.50
2018-10-16T02:12:22.804Z,14.60
2018-10-16T02:13:25.321Z,14.60
2018-10-16T02:14:28.241Z,14.60
2018-10-16T02:15:30.577Z,14.60
2018-10-16T02:16:32.685Z,14.60
2018-10-16T02:17:34.825Z,14.60
2018-10-16T02:18:36.931Z,14.60
2018-10-16T02:19:39.029Z,14.60
2018-10-16T02:20:41.144Z,14.60
2018-10-16T02:21:43.270Z,14.60
2018-10-16T02:22:45.409Z,14.60
2018-10-16T02:23:47.526Z,14.60
2018-10-16T02:24:49.674Z,14.50
2018-10-16T02:25:51.849Z,14.50
2018-10-16T02:26:54.157Z,14.60
2018-10-16T02:27:56.289Z,14.50
2018-10-16T02:28:58.409Z,14.50
2018-10-16T02:30:00.530Z,14.50
2018-10-16T02:31:02.677Z,14.50
2018-10-16T02:32:05.221Z,14.50
2018-10-16T02:33:07.350Z,14.60
2018-10-16T02:35:18.385Z,14.60
2018-10-16T02:36:20.544Z,14.60
2018-10-16T02:37:22.693Z,14.60
2018-10-16T02:38:24.813Z,14.60
2018-10-16T02:39:26.955Z,14.60
2018-10-16T02:40:29.113Z,14.60
2018-10-16T02:41:31.272Z,14.60
2018-10-16T02:42:33.430Z,14.60
2018-10-16T02:43:35.577Z,14.60
2018-10-16T02:44:37.750Z,14.60
2018-10-16T02:45:39.904Z,14.50
2018-10-16T02:46:42.063Z,14.60
2018-10-16T02:47:44.294Z,14.50
2018-10-16T02:48:46.466Z,14.50
2018-10-16T02:49:48.613Z,14.60
2018-10-16T02:50:50.868Z,14.60
2018-10-16T02:51:53.061Z,14.60
2018-10-16T02:52:55.477Z,14.60
2018-10-16T02:53:57.641Z,14.60
2018-10-16T02:54:59.793Z,14.60
2018-10-16T02:56:01.926Z,14.50
2018-10-16T02:57:04.607Z,14.50
2018-10-16T02:58:07.035Z,14.50
2018-10-16T02:59:09.215Z,14.50
2018-10-16T03:00:11.386Z,14.50
2018-10-16T03:01:13.534Z,14.60
2018-10-16T03:02:15.693Z,14.60
2018-10-16T03:03:17.885Z,14.60
2018-10-16T03:04:20.038Z,14.60
2018-10-16T03:05:22.244Z,14.60
2018-10-16T03:06:24.413Z,14.60
2018-10-16T03:07:26.617Z,14.60
2018-10-16T03:08:28.778Z,14.60
2018-10-16T03:09:30.939Z,14.60
2018-10-16T03:10:33.097Z,14.60
2018-10-16T03:11:35.265Z,14.60
2018-10-16T03:12:37.420Z,14.60
2018-10-16T03:13:39.613Z,14.60
2018-10-16T03:14:41.768Z,14.60
2018-10-16T03:15:43.931Z,14.50
2018-10-16T03:16:46.088Z,14.50
2018-10-16T03:17:48.318Z,14.50
2018-10-16T03:18:50.480Z,14.50
2018-10-16T03:19:52.740Z,14.40
2018-10-16T03:20:54.966Z,14.40
2018-10-16T03:21:57.186Z,14.40
2018-10-16T03:22:59.341Z,14.40
2018-10-16T03:24:01.473Z,14.40
2018-10-16T03:25:04.105Z,14.40
2018-10-16T03:26:06.423Z,14.40
2018-10-16T03:27:08.587Z,14.40
2018-10-16T03:28:10.756Z,14.40
2018-10-16T03:29:12.889Z,14.40
2018-10-16T03:30:15.050Z,14.30
2018-10-16T03:31:17.195Z,14.40
2018-10-16T03:32:19.360Z,14.30
2018-10-16T03:33:21.520Z,14.30
2018-10-16T03:34:23.652Z,14.30
2018-10-16T03:35:25.834Z,14.30
2018-10-16T03:36:28.059Z,14.30
2018-10-16T03:37:30.285Z,14.30
2018-10-16T03:38:32.444Z,14.30
2018-10-16T03:39:34.590Z,14.30
2018-10-16T03:40:36.751Z,14.30
2018-10-16T03:41:38.932Z,14.30
2018-10-16T03:42:41.697Z,14.30
2018-10-16T03:43:43.860Z,14.30
2018-10-16T03:44:46.005Z,14.20
2018-10-16T03:45:48.154Z,14.20
2018-10-16T03:46:50.301Z,14.20
2018-10-16T03:47:52.454Z,14.20
2018-10-16T03:48:54.602Z,14.20
2018-10-16T03:49:56.964Z,14.20
2018-10-16T03:50:59.102Z,14.20
2018-10-16T03:52:01.314Z,14.20
2018-10-16T03:53:03.849Z,14.20
2018-10-16T03:54:06.247Z,14.20
2018-10-16T03:55:08.457Z,14.20
2018-10-16T03:56:10.589Z,14.20
2018-10-16T03:57:12.729Z,14.20
2018-10-16T03:58:14.833Z,14.20
2018-10-16T03:59:17.001Z,14.20
2018-10-16T04:00:19.117Z,14.10
2018-10-16T04:01:22.580Z,14.10
2018-10-16T04:02:24.997Z,14.10
2018-10-16T04:03:27.113Z,14.10
2018-10-16T04:04:29.245Z,14.20
2018-10-16T04:05:31.431Z,14.10
2018-10-16T04:06:33.620Z,14.10
2018-10-16T04:07:35.826Z,14.10
2018-10-16T04:08:37.961Z,14.10
2018-10-16T04:09:40.106Z,14.10
2018-10-16T04:10:42.250Z,14.10
2018-10-16T04:11:44.384Z,14.10
2018-10-16T04:12:46.547Z,14.10
2018-10-16T04:13:49.379Z,14.10
2018-10-16T04:14:51.738Z,14.10
2018-10-16T04:15:53.881Z,14.10
2018-10-16T04:16:56.184Z,14.00
2018-10-16T04:17:58.369Z,14.00
2018-10-16T04:19:00.575Z,14.00
2018-10-16T04:20:02.799Z,14.00
2018-10-16T04:21:04.993Z,14.00
2018-10-16T04:22:07.172Z,14.00
2018-10-16T04:23:09.309Z,14.00
2018-10-16T04:24:11.511Z,14.00
2018-10-16T04:25:13.688Z,14.00
2018-10-16T04:26:15.835Z,14.00
2018-10-16T04:27:17.999Z,13.90
2018-10-16T04:28:20.145Z,13.90
2018-10-16T04:29:22.555Z,13.90
2018-10-16T04:30:24.666Z,13.90
2018-10-16T04:31:26.904Z,13.90
2018-10-16T04:32:29.070Z,13.90
2018-10-16T04:33:31.497Z,13.80
2018-10-16T04:34:33.689Z,13.80
2018-10-16T04:35:35.848Z,13.90
2018-10-16T04:36:38.104Z,13.80
2018-10-16T04:37:40.444Z,13.70
2018-10-16T04:38:42.626Z,13.80
2018-10-16T04:39:44.807Z,13.80
2018-10-16T04:40:46.939Z,13.80
2018-10-16T04:41:54.968Z,13.80
2018-10-16T04:42:57.254Z,13.70
2018-10-16T04:43:59.463Z,13.70
2018-10-16T04:45:01.640Z,13.60
2018-10-16T04:46:03.784Z,13.60
2018-10-16T04:47:05.960Z,13.60
2018-10-16T04:48:08.145Z,13.60
2018-10-16T04:49:10.297Z,13.60
2018-10-16T04:50:12.439Z,13.70
2018-10-16T04:51:14.577Z,13.70
2018-10-16T04:52:16.734Z,13.70
2018-10-16T04:53:18.932Z,13.70
2018-10-16T04:54:21.086Z,13.80
2018-10-16T04:55:23.233Z,13.80
2018-10-16T04:56:25.392Z,13.80
2018-10-16T04:57:27.522Z,13.80
2018-10-16T04:58:29.712Z,13.80
2018-10-16T04:59:31.890Z,13.90
2018-10-16T05:00:34.096Z,13.90
2018-10-16T05:01:36.281Z,13.80
2018-10-16T05:02:39.877Z,13.80
2018-10-16T05:03:42.037Z,13.70
2018-10-16T05:04:44.202Z,13.80
2018-10-16T05:05:46.415Z,13.70
2018-10-16T05:06:48.592Z,13.70
2018-10-16T05:08:01.627Z,13.70
2018-10-16T05:09:05.824Z,13.70
2018-10-16T05:10:10.241Z,13.70
2018-10-16T05:11:12.439Z,13.70
2018-10-16T05:12:14.711Z,13.70
2018-10-16T05:13:16.904Z,13.50
2018-10-16T05:14:19.073Z,13.70
2018-10-16T05:15:30.794Z,13.70
2018-10-16T05:16:32.990Z,13.70
2018-10-16T05:17:35.160Z,13.70
2018-10-16T05:18:37.305Z,13.70
2018-10-16T05:19:39.826Z,13.70
2018-10-16T05:20:41.991Z,13.70
2018-10-16T05:21:44.193Z,13.70
2018-10-16T05:22:46.673Z,13.70
2018-10-16T05:23:48.872Z,13.70
2018-10-16T05:24:51.046Z,13.60
2018-10-16T05:25:53.227Z,13.60
2018-10-16T05:26:55.403Z,13.60
2018-10-16T05:27:57.971Z,13.60
2018-10-16T05:29:00.262Z,13.60
2018-10-16T05:30:02.504Z,13.60
2018-10-16T05:31:04.753Z,13.50
2018-10-16T05:32:06.969Z,13.40
2018-10-16T05:33:09.129Z,13.50
2018-10-16T05:34:11.867Z,13.50
2018-10-16T05:35:14.004Z,13.50
2018-10-16T05:36:16.206Z,13.50
2018-10-16T05:37:18.402Z,13.50
2018-10-16T05:38:20.566Z,13.50
2018-10-16T05:39:22.794Z,13.50
2018-10-16T05:40:25.189Z,13.50
2018-10-16T05:41:27.418Z,13.50
2018-10-16T05:42:30.225Z,13.50
2018-10-16T05:43:32.481Z,13.50
2018-10-16T05:44:34.676Z,13.60
2018-10-16T05:45:39.883Z,13.60
2018-10-16T05:46:42.089Z,13.60
2018-10-16T05:47:44.840Z,13.60
2018-10-16T05:48:47.012Z,13.60
2018-10-16T05:49:49.177Z,13.60
2018-10-16T05:50:51.325Z,13.60
2018-10-16T05:51:53.573Z,13.60
2018-10-16T05:52:55.804Z,13.60
2018-10-16T05:53:57.997Z,13.60
2018-10-16T05:55:00.731Z,13.60
2018-10-16T05:56:04.307Z,13.60
2018-10-16T05:57:06.539Z,13.50
2018-10-16T05:58:08.932Z,13.50
2018-10-16T05:59:17.742Z,13.40
2018-10-16T06:00:36.587Z,13.40
2018-10-16T06:01:38.764Z,13.40
2018-10-16T06:02:40.997Z,13.40
2018-10-16T06:03:43.159Z,13.40
2018-10-16T06:04:45.325Z,13.40
2018-10-16T06:05:47.551Z,13.40
2018-10-16T06:06:49.677Z,13.40
2018-10-16T06:07:51.838Z,13.40
2018-10-16T06:08:54.045Z,13.40
2018-10-16T06:09:56.246Z,13.40
2018-10-16T06:10:58.633Z,13.40
2018-10-16T06:12:00.930Z,13.40
2018-10-16T06:13:03.213Z,13.40
2018-10-16T06:14:05.393Z,13.40
2018-10-16T06:15:08.333Z,13.40
2018-10-16T06:16:10.574Z,13.40
2018-10-16T06:17:12.776Z,13.40
2018-10-16T06:18:14.934Z,13.40
2018-10-16T06:19:17.149Z,13.40
2018-10-16T06:20:19.333Z,13.40
2018-10-16T06:21:21.482Z,13.40
2018-10-16T06:22:23.654Z,13.30
2018-10-16T06:23:25.828Z,13.30
2018-10-16T06:24:28.027Z,13.40
2018-10-16T06:25:30.229Z,13.40
2018-10-16T06:26:32.430Z,13.40
2018-10-16T06:27:34.582Z,13.40
2018-10-16T06:28:36.738Z,13.40
2018-10-16T06:29:38.904Z,13.40
2018-10-16T06:30:41.080Z,13.40
2018-10-16T06:31:43.314Z,13.40
2018-10-16T06:32:45.472Z,13.40
2018-10-16T06:33:47.650Z,13.40
2018-10-16T06:34:49.852Z,13.40
2018-10-16T06:35:52.025Z,13.40
2018-10-16T06:36:54.212Z,13.40
2018-10-16T06:37:56.411Z,13.40
2018-10-16T06:38:58.535Z,13.30
2018-10-16T06:40:00.780Z,13.30
2018-10-16T06:41:03.372Z,13.40
2018-10-16T06:42:05.364Z,13.40
2018-10-16T06:43:07.526Z,13.40
2018-10-16T06:44:09.693Z,13.30
2018-10-16T06:45:11.845Z,13.30
2018-10-16T06:46:14.001Z,13.30
2018-10-16T06:47:16.220Z,13.30
2018-10-16T06:48:18.753Z,13.40
2018-10-16T06:49:20.525Z,13.40
2018-10-16T06:50:22.678Z,13.40
2018-10-16T06:51:24.845Z,13.40
2018-10-16T06:52:27.006Z,13.40
2018-10-16T06:53:29.183Z,13.50
2018-10-16T06:54:31.352Z,13.50
2018-10-16T06:55:33.536Z,13.50
2018-10-16T06:56:35.705Z,13.50
2018-10-16T06:57:37.869Z,13.50
2018-10-16T06:58:40.068Z,13.50
2018-10-16T06:59:42.241Z,13.50
2018-10-16T07:00:44.390Z,13.50
2018-10-16T07:01:46.554Z,13.50
2018-10-16T07:02:48.685Z,13.50
2018-10-16T07:03:50.882Z,13.50
2018-10-16T07:04:53.031Z,13.50
2018-10-16T07:05:55.188Z,13.50
2018-10-16T07:06:57.432Z,13.50
2018-10-16T07:07:59.657Z,13.60
2018-10-16T07:09:01.885Z,13.50
2018-10-16T07:10:05.508Z,13.50
2018-10-16T07:11:07.769Z,13.50
2018-10-16T07:12:09.941Z,13.50
2018-10-16T07:13:12.109Z,13.40
2018-10-16T07:14:14.306Z,13.40
2018-10-16T07:15:16.461Z,13.40
2018-10-16T07:16:18.613Z,13.40
2018-10-16T07:17:20.777Z,13.40
2018-10-16T07:18:22.929Z,13.40
2018-10-16T07:19:25.113Z,13.40
2018-10-16T07:20:27.299Z,13.40
2018-10-16T07:21:29.445Z,13.40
2018-10-16T07:22:31.645Z,13.40
2018-10-16T07:23:33.853Z,13.40
2018-10-16T07:24:36.031Z,13.40
2018-10-16T07:25:38.189Z,13.40
2018-10-16T07:26:40.347Z,13.40
2018-10-16T07:27:42.513Z,13.40
2018-10-16T07:28:44.683Z,13.40
2018-10-16T07:29:46.838Z,13.40
2018-10-16T07:30:49.005Z,13.50
2018-10-16T07:31:51.212Z,13.50
2018-10-16T07:32:53.375Z,13.40
2018-10-16T07:33:55.537Z,13.50
2018-10-16T07:34:57.728Z,13.50
2018-10-16T07:36:00.074Z,13.60
2018-10-16T07:37:03.160Z,13.60
2018-10-16T07:38:05.991Z,13.60
2018-10-16T07:39:09.480Z,13.60
2018-10-16T07:40:11.767Z,13.60
2018-10-16T07:41:13.938Z,13.60
2018-10-16T07:42:16.117Z,13.60
2018-10-16T07:43:18.253Z,13.70
2018-10-16T07:44:20.433Z,13.70
2018-10-16T07:45:22.598Z,13.70
2018-10-16T07:46:24.897Z,13.80
2018-10-16T07:47:27.098Z,13.80
2018-10-16T07:48:29.440Z,13.80
2018-10-16T07:49:31.497Z,13.90
2018-10-16T07:50:33.671Z,14.00
2018-10-16T07:51:35.998Z,14.00
2018-10-16T07:52:38.308Z,14.10
2018-10-16T07:53:40.478Z,14.10
2018-10-16T07:54:42.657Z,14.10
2018-10-16T07:55:44.900Z,14.10
2018-10-16T07:56:47.276Z,14.20
2018-10-16T07:57:49.452Z,14.20
2018-10-16T07:58:51.628Z,14.20
2018-10-16T07:59:53.785Z,14.20
2018-10-16T08:00:56.009Z,14.20
2018-10-16T08:01:58.211Z,14.30
2018-10-16T08:03:00.374Z,14.30
2018-10-16T08:04:02.521Z,14.30
2018-10-16T08:05:05.218Z,14.30
2018-10-16T08:06:07.425Z,14.40
2018-10-16T08:07:09.619Z,14.40
2018-10-16T08:08:11.838Z,14.40
2018-10-16T08:09:15.033Z,14.40
2018-10-16T08:10:17.209Z,14.50
2018-10-16T08:11:19.417Z,14.50
2018-10-16T08:12:21.629Z,14.50
2018-10-16T08:13:23.785Z,14.60
2018-10-16T08:14:26.075Z,14.60
2018-10-16T08:15:28.212Z,14.60
2018-10-16T08:16:30.398Z,14.60
2018-10-16T08:17:32.608Z,14.60
2018-10-16T08:18:34.782Z,14.60
2018-10-16T08:19:36.937Z,14.70
2018-10-16T08:20:39.068Z,14.70
2018-10-16T08:21:41.400Z,14.70
2018-10-16T08:22:43.606Z,14.70
2018-10-16T08:23:45.961Z,14.70
2018-10-16T08:24:48.153Z,14.70
2018-10-16T08:25:50.330Z,14.70
2018-10-16T08:26:52.491Z,14.70
2018-10-16T08:27:54.673Z,14.70
2018-10-16T08:28:56.816Z,14.70
2018-10-16T08:29:59.045Z,14.80
2018-10-16T08:31:01.286Z,14.80
2018-10-16T08:32:03.687Z,14.80
2018-10-16T08:33:05.949Z,14.80
2018-10-16T08:34:08.151Z,14.90
2018-10-16T08:35:10.507Z,14.90
2018-10-16T08:36:12.860Z,14.90
2018-10-16T08:37:21.922Z,15.00
2018-10-16T08:38:36.810Z,15.00
2018-10-16T08:39:41.221Z,15.00
2018-10-16T08:40:43.406Z,15.00
2018-10-16T08:41:53.777Z,15.10
2018-10-16T08:43:18.446Z,15.10
2018-10-16T08:44:30.715Z,15.10
2018-10-16T08:45:44.485Z,15.10
2018-10-16T08:46:58.152Z,15.10
2018-10-16T08:48:11.845Z,15.10
2018-10-16T08:49:25.392Z,15.20
2018-10-16T08:50:40.678Z,15.20
2018-10-16T08:51:54.949Z,15.20
2018-10-16T08:52:57.088Z,15.20
2018-10-16T08:53:59.289Z,15.30
2018-10-16T08:55:01.566Z,15.30
2018-10-16T08:56:03.596Z,15.40
2018-10-16T08:57:05.749Z,15.40
2018-10-16T08:58:07.886Z,15.40
2018-10-16T08:59:10.057Z,15.50
2018-10-16T09:00:12.408Z,15.50
2018-10-16T09:01:14.842Z,15.60
2018-10-16T09:02:16.984Z,15.70
2018-10-16T09:03:19.153Z,15.70
2018-10-16T09:04:21.299Z,15.80
2018-10-16T09:05:23.517Z,15.80
2018-10-16T09:06:25.728Z,15.80
2018-10-16T09:07:27.917Z,15.90
2018-10-16T09:08:30.090Z,15.90
2018-10-16T09:09:32.239Z,15.90
2018-10-16T09:10:34.397Z,16.00
2018-10-16T09:11:36.554Z,16.10
2018-10-16T09:12:38.721Z,16.00
2018-10-16T09:13:40.897Z,16.10
2018-10-16T09:14:43.022Z,16.10
2018-10-16T09:15:45.174Z,16.20
2018-10-16T09:16:47.713Z,16.20
2018-10-16T09:17:49.865Z,16.20
2018-10-16T09:18:52.042Z,16.30
2018-10-16T09:19:54.186Z,16.40
2018-10-16T09:20:56.874Z,16.40
2018-10-16T09:21:59.076Z,16.60
2018-10-16T09:23:01.247Z,16.50
2018-10-16T09:24:03.456Z,16.50
2018-10-16T09:25:06.329Z,16.50
2018-10-16T09:26:08.391Z,16.60
2018-10-16T09:27:10.585Z,16.60
2018-10-16T09:28:12.717Z,16.70
2018-10-16T09:29:15.051Z,16.70
2018-10-16T09:30:17.254Z,16.80
2018-10-16T09:31:19.410Z,16.90
2018-10-16T09:32:21.630Z,16.90
2018-10-16T09:33:23.793Z,16.90
2018-10-16T09:34:25.942Z,17.00
2018-10-16T09:35:28.166Z,17.00
2018-10-16T09:36:30.386Z,17.10
2018-10-16T09:37:32.576Z,17.10
2018-10-16T09:38:34.677Z,17.10
2018-10-16T09:39:36.836Z,17.20
2018-10-16T09:40:38.953Z,17.20
2018-10-16T09:41:41.459Z,17.20
2018-10-16T09:42:43.608Z,17.30
2018-10-16T09:43:45.769Z,17.30
2018-10-16T09:44:47.901Z,17.30
2018-10-16T09:45:50.095Z,17.40
2018-10-16T09:46:52.241Z,17.40
2018-10-16T09:47:54.398Z,17.40
2018-10-16T09:48:56.521Z,17.50
2018-10-16T09:49:58.665Z,17.50
2018-10-16T09:51:00.830Z,17.60
2018-10-16T09:52:03.097Z,17.60
2018-10-16T09:53:05.851Z,17.60
2018-10-16T09:54:07.985Z,17.60
2018-10-16T09:55:10.114Z,17.70
2018-10-16T09:56:12.263Z,17.70
2018-10-16T09:57:14.405Z,17.70
2018-10-16T09:58:16.851Z,17.70
2018-10-16T09:59:19.325Z,17.70
2018-10-16T10:00:28.164Z,17.80
2018-10-16T10:01:36.011Z,17.80
2018-10-16T10:02:38.376Z,17.90
2018-10-16T10:03:40.543Z,17.90
2018-10-16T10:04:42.710Z,18.00
2018-10-16T10:05:44.838Z,18.00
2018-10-16T10:06:46.989Z,18.10
2018-10-16T10:07:49.153Z,18.10
2018-10-16T10:08:51.308Z,18.10
2018-10-16T10:09:53.673Z,18.10
2018-10-16T10:10:55.849Z,18.20
2018-10-16T10:11:57.973Z,18.20
2018-10-16T10:13:00.332Z,18.30
2018-10-16T10:14:02.580Z,18.30
2018-10-16T10:15:04.831Z,18.30
2018-10-16T10:16:07.149Z,18.40
2018-10-16T10:17:09.299Z,18.50
2018-10-16T10:18:11.505Z,18.50
2018-10-16T10:19:13.717Z,18.50
2018-10-16T10:20:15.866Z,18.50
2018-10-16T10:21:18.207Z,18.50
2018-10-16T10:22:20.385Z,18.60
2018-10-16T10:23:22.576Z,18.60
2018-10-16T10:24:24.685Z,18.70
2018-10-16T10:25:26.814Z,18.70
2018-10-16T10:26:29.030Z,18.70
2018-10-16T10:27:31.381Z,18.70
2018-10-16T10:28:33.513Z,18.80
2018-10-16T10:29:35.773Z,18.80
2018-10-16T10:30:37.821Z,18.90
2018-10-16T10:31:39.966Z,18.90
2018-10-16T10:32:42.124Z,19.00
2018-10-16T10:33:44.250Z,19.00
2018-10-16T10:34:46.418Z,19.10
2018-10-16T10:35:48.565Z,19.10
2018-10-16T10:36:50.705Z,19.10
2018-10-16T10:37:52.894Z,19.20
2018-10-16T10:38:55.037Z,19.20
2018-10-16T10:39:57.473Z,19.20
2018-10-16T10:40:59.680Z,19.30
2018-10-16T10:42:01.875Z,19.30
2018-10-16T10:43:04.613Z,19.40
2018-10-16T10:44:07.333Z,19.40
2018-10-16T10:45:09.514Z,19.50
2018-10-16T10:46:11.645Z,19.50
2018-10-16T10:47:13.808Z,19.50
2018-10-16T10:48:15.940Z,19.50
2018-10-16T10:49:18.291Z,19.60
2018-10-16T10:50:20.718Z,19.60
2018-10-16T10:51:23.152Z,19.70
2018-10-16T10:52:24.923Z,19.70
2018-10-16T10:53:27.098Z,19.70
2018-10-16T10:54:29.310Z,19.70
2018-10-16T10:55:31.525Z,19.80
2018-10-16T10:56:33.706Z,19.80
2018-10-16T10:57:36.404Z,19.80
2018-10-16T10:58:38.574Z,19.90
2018-10-16T10:59:40.695Z,19.90
2018-10-16T11:00:42.871Z,19.90
2018-10-16T11:01:45.080Z,20.00
2018-10-16T11:02:48.137Z,20.00
2018-10-16T11:03:50.330Z,20.00
2018-10-16T11:04:52.455Z,20.10
2018-10-16T11:05:54.619Z,20.10
2018-10-16T11:06:56.793Z,20.10
2018-10-16T11:07:59.037Z,20.20
2018-10-16T11:09:01.282Z,20.20
2018-10-16T11:10:03.814Z,20.30
2018-10-16T11:11:06.051Z,20.30
2018-10-16T11:12:08.215Z,20.30
2018-10-16T11:13:10.362Z,20.30
2018-10-16T11:14:12.526Z,20.40
2018-10-16T11:15:14.738Z,20.40
2018-10-16T11:16:16.811Z,20.40
2018-10-16T11:17:18.977Z,20.40
2018-10-16T11:18:21.134Z,20.50
2018-10-16T11:19:23.693Z,20.50
2018-10-16T11:20:25.785Z,20.50
2018-10-16T11:21:27.951Z,20.60
2018-10-16T11:22:30.127Z,20.60
2018-10-16T11:23:32.255Z,20.60
2018-10-16T11:24:34.382Z,20.60
2018-10-16T11:25:36.542Z,20.60
2018-10-16T11:26:38.673Z,20.80
2018-10-16T11:27:40.845Z,20.70
2018-10-16T11:28:43.000Z,20.80
2018-10-16T11:29:45.150Z,20.80
2018-10-16T11:30:47.274Z,20.80
2018-10-16T11:31:49.386Z,20.80
2018-10-16T11:32:51.602Z,20.90
2018-10-16T11:33:53.706Z,20.90
2018-10-16T11:34:56.180Z,20.90
2018-10-16T11:35:58.309Z,20.90
2018-10-16T11:37:00.530Z,21.00
2018-10-16T11:38:02.629Z,21.00
2018-10-16T11:39:06.967Z,21.00
2018-10-16T11:40:09.656Z,21.10
2018-10-16T11:41:11.788Z,21.10
2018-10-16T11:42:13.948Z,21.10
2018-10-16T11:43:16.089Z,21.10
2018-10-16T11:44:18.222Z,21.10
2018-10-16T11:45:20.375Z,21.20
2018-10-16T11:46:22.502Z,21.20
2018-10-16T11:47:24.664Z,21.20
2018-10-16T11:48:26.816Z,21.20
2018-10-16T11:49:28.936Z,21.30
2018-10-16T11:50:31.108Z,21.30
2018-10-16T11:51:33.321Z,21.40
2018-10-16T11:52:35.479Z,21.40
2018-10-16T11:53:37.720Z,21.40
2018-10-16T11:54:40.162Z,21.40
2018-10-16T11:55:42.290Z,21.40
2018-10-16T11:56:44.431Z,21.50
2018-10-16T11:57:46.602Z,21.50
2018-10-16T11:58:48.709Z,21.50
2018-10-16T11:59:50.830Z,21.60
2018-10-16T12:00:53.126Z,21.60
2018-10-16T12:01:55.324Z,21.60
2018-10-16T12:02:57.431Z,21.70
2018-10-16T12:03:59.579Z,21.70
2018-10-16T12:05:01.806Z,21.70
2018-10-16T12:06:04.112Z,21.80
2018-10-16T12:07:06.294Z,21.80
2018-10-16T12:08:08.442Z,21.80
2018-10-16T12:09:10.495Z,21.80
2018-10-16T12:10:12.620Z,21.80
2018-10-16T12:11:14.888Z,21.80
2018-10-16T12:12:16.952Z,21.90
2018-10-16T12:13:19.422Z,21.90
2018-10-16T12:14:21.546Z,21.90
2018-10-16T12:15:24.002Z,21.90
2018-10-16T12:16:29.445Z,21.90
2018-10-16T12:17:42.842Z,22.00
2018-10-16T12:18:49.246Z,22.00
2018-10-16T12:19:57.058Z,22.00
2018-10-16T12:21:07.958Z,22.00
2018-10-16T12:22:10.045Z,22.10
2018-10-16T12:23:12.287Z,22.10
2018-10-16T12:24:14.407Z,22.10
2018-10-16T12:25:17.082Z,22.10
2018-10-16T12:26:19.885Z,22.20
2018-10-16T12:27:22.005Z,22.20
2018-10-16T12:28:24.137Z,22.20
2018-10-16T12:29:26.259Z,22.30
2018-10-16T12:30:28.501Z,22.30
2018-10-16T12:31:30.652Z,22.40
2018-10-16T12:32:32.818Z,22.40
2018-10-16T12:33:34.977Z,22.40
2018-10-16T12:34:37.165Z,22.40
2018-10-16T12:35:39.329Z,22.40
2018-10-16T12:36:41.557Z,22.40
2018-10-16T12:37:43.692Z,22.50
2018-10-16T12:38:45.814Z,22.50
2018-10-16T12:39:48.573Z,22.50
2018-10-16T12:40:52.156Z,22.60
2018-10-16T12:41:54.302Z,22.60
2018-10-16T12:42:56.489Z,22.60
2018-10-16T12:43:58.594Z,22.60
2018-10-16T12:45:00.916Z,22.70
2018-10-16T12:46:03.213Z,22.70
2018-10-16T12:47:05.402Z,22.70
2018-10-16T12:48:07.565Z,22.70
2018-10-16T12:49:09.742Z,22.70
2018-10-16T12:50:12.002Z,22.70
2018-10-16T12:51:14.192Z,22.70
2018-10-16T12:52:16.279Z,22.80
2018-10-16T12:53:18.429Z,22.80
2018-10-16T12:54:20.626Z,22.80
2018-10-16T12:55:22.799Z,22.80
2018-10-16T12:56:24.982Z,22.90
2018-10-16T12:57:27.195Z,22.90
2018-10-16T12:58:29.307Z,23.00
2018-10-16T12:59:31.629Z,23.00
2018-10-16T13:00:33.828Z,23.00
2018-10-16T13:01:36.001Z,23.00
2018-10-16T13:02:38.157Z,23.00
2018-10-16T13:03:40.380Z,23.10
2018-10-16T13:04:42.463Z,23.10
2018-10-16T13:05:44.710Z,23.10
2018-10-16T13:06:46.881Z,23.20
2018-10-16T13:07:49.353Z,23.20
2018-10-16T13:08:51.511Z,23.20
2018-10-16T13:09:53.736Z,23.30
2018-10-16T13:10:55.979Z,23.30
2018-10-16T13:11:58.081Z,23.30
2018-10-16T13:13:00.253Z,23.40
2018-10-16T13:14:02.452Z,23.40
2018-10-16T13:15:06.226Z,23.40
2018-10-16T13:16:08.457Z,23.50
2018-10-16T13:17:10.667Z,23.50
2018-10-16T13:18:12.781Z,23.50
2018-10-16T13:19:14.932Z,23.50
2018-10-16T13:20:17.162Z,23.60
2018-10-16T13:21:19.237Z,23.60
2018-10-16T13:22:21.692Z,23.60
2018-10-16T13:23:23.907Z,23.60
2018-10-16T13:24:26.053Z,23.60
2018-10-16T13:25:28.210Z,23.70
2018-10-16T13:26:30.374Z,23.70